Garwin, Iowa
Current Conditions -  °F | °C
As of 4:53 PM on Friday 28 Nov 2014 (Local Time) from KMIW Reporting Station
Clear Clear  
Wind Chill: 21°   Ceiling: Unl
Heat Index: 30°   Visibility: 9mi
Dew Point: 25°   Wind: 12mph
Humidity: 82%   Direction: 120°ESE
Pressure: 29.78"   Gusts: NA
Location:  42.09°N, 92.68°W
Report Text: KMIW 282253Z AUTO 12010KT 9SM CLR M01/M04 A2978 RMK AO2 SLP097 T10111039
Loading
Personal Weather Stations






























Interactive Weather Map New forecast layout! Learn more

10-Day Weather Forecast

Advertisements
Track Severe Weather on mobile